Moroni, UT (84646)

9:20 AM MDT on September 19, 2014 (GMT -0600)
KUTSPRIN7 | Change Station
CLOSE
Current Station
Personal Weather Station
Location: Spring City, UT
Elevation: 5843 ft
Nearby Weather Stations

Elev 5843 ft 39.48 °N, 111.49 °W | Updated 5 minutes ago

Partly Cloudy
Partly Cloudy
71.0 °F
Feels Like 77 °F
N
0.0
Wind Variable Wind from NW
Gusts 2.0 mph

Today
High -- | Low -- °F
--% Chance of Precip.
Yesterday
High -- | Low -- °F
Precip. -- in
7:11 AM 7:28 PM
Waning Crescent, 18% visible
Pressure 29.85 in
Visibility 10.0 miles
Clouds Clear
Heat Index 77 °F
Dew Point 54 °F
Humidity 55%
Rainfall 0.00 in
Snow Depth 0 in , 0 in , 0 in
UV 0.0 out of 12
Pollen 4.60 out of 12
Air Quality Not available.
Flu Activity Not available.
METAR KPUC 191453Z AUTO 00000KT 10SM CLR 21/06 A3009 RMK AO2 SLP106 T02110061 52015

More Conditions Fewer Conditions

Pressure 29.85 in
Visibility 10.0 miles
Clouds Clear
Heat Index 77 °F
Dew Point 54 °F
Humidity 55%
Rainfall 0.00 in
Snow Depth 0 in , 0 in , 0 in
UV 0.0 out of 12
Pollen 4.60 out of 12
Air Quality Not available.
Flu Activity Not available.
METAR KPUC 191453Z AUTO 00000KT 10SM CLR 21/06 A3009 RMK AO2 SLP106 T02110061 52015

More Conditions Fewer Conditions

10-Day Weather Forecast

Almanac

Astronomy

Sep. 19, 2014 Rise Set
Actual Time 7:11 AM MDT 7:28 PM MDT
Civil Twilight 6:44 AM MDT 7:55 PM MDT
Nautical Twilight 6:12 AM MDT 8:26 PM MDT
Astronomical Twilight 5:40 AM MDT 8:58 PM MDT
Moon 3:00 AM MDT 4:58 PM MDT
Length of Visible Light 13h 10m
Length of Day
12h 16m
Tomorrow will be 2m 34s shorter.
Waning Crescent, 18% of the Moon is Illuminated
Today
Waning Crescent
Sep 24
New
Oct 1
First Quarter
Oct 8
Full
Oct 15
Last Quarter

Today's Extremes

State Highs State Lows

Community

WunderPhotos

Upload Photos

1,754,637 photos uploaded!

WunderBlogs® & News

By Dr. Jeff Masters
Director of Meteorology, Weather Underground
By Kari Strenfel
Meteorologist, Weather Underground
By Christopher C. Burt
Weather Historian, Weather Underground
September 19, 2014
September 19, 2014
September 19, 2014

Nearby

Snow Depth

Station Depth Elevation
Rock Creek 0 in 7900 ft
Mill-d North 0 in 8960 ft
Little Bear 0 in 6550 ft
Trout Creek 0 in 9400 ft
Chalk Creek #1 0 in 9100 ft

Earthquake Activity

City Distance Mag. Time & Date
No recent earthquake activity has been reported nearby.
Minimum magnitude displayed is 2.5.

Coastal Water Temperatures

Place Temperature
No Stations Reporting

Nearby Weather Stations